sensor_id;sensor_type;location;lat;lon;timestamp;temperature;humidity
10885;DHT22;5495;53.252;10.390;2023-05-10T00:01:42;14.90;90.60
10885;DHT22;5495;53.252;10.390;2023-05-10T00:04:09;14.90;90.70
10885;DHT22;5495;53.252;10.390;2023-05-10T00:06:37;14.90;90.80
10885;DHT22;5495;53.252;10.390;2023-05-10T00:09:04;14.80;90.90
10885;DHT22;5495;53.252;10.390;2023-05-10T00:11:31;14.80;90.90
10885;DHT22;5495;53.252;10.390;2023-05-10T00:13:58;14.80;91.00
10885;DHT22;5495;53.252;10.390;2023-05-10T00:16:25;14.80;91.20
10885;DHT22;5495;53.252;10.390;2023-05-10T00:18:52;14.70;91.40
10885;DHT22;5495;53.252;10.390;2023-05-10T00:21:19;14.70;91.20
10885;DHT22;5495;53.252;10.390;2023-05-10T00:23:47;14.70;91.20
10885;DHT22;5495;53.252;10.390;2023-05-10T00:26:14;14.70;91.40
10885;DHT22;5495;53.252;10.390;2023-05-10T00:28:42;14.60;91.40
10885;DHT22;5495;53.252;10.390;2023-05-10T00:31:08;14.60;91.40
10885;DHT22;5495;53.252;10.390;2023-05-10T00:33:35;14.60;91.50
10885;DHT22;5495;53.252;10.390;2023-05-10T00:36:03;14.60;91.50
10885;DHT22;5495;53.252;10.390;2023-05-10T00:38:29;14.60;91.50
10885;DHT22;5495;53.252;10.390;2023-05-10T00:40:58;14.50;91.60
10885;DHT22;5495;53.252;10.390;2023-05-10T00:43:24;14.50;91.70
10885;DHT22;5495;53.252;10.390;2023-05-10T00:45:52;14.50;91.80
10885;DHT22;5495;53.252;10.390;2023-05-10T00:48:19;14.50;91.70
10885;DHT22;5495;53.252;10.390;2023-05-10T00:50:46;14.40;91.80
10885;DHT22;5495;53.252;10.390;2023-05-10T00:53:14;14.40;91.90
10885;DHT22;5495;53.252;10.390;2023-05-10T00:55:41;14.40;91.80
10885;DHT22;5495;53.252;10.390;2023-05-10T00:58:10;14.40;92.00
10885;DHT22;5495;53.252;10.390;2023-05-10T01:00:41;14.30;92.10
10885;DHT22;5495;53.252;10.390;2023-05-10T01:03:10;14.30;92.40
10885;DHT22;5495;53.252;10.390;2023-05-10T01:05:37;14.30;92.10
10885;DHT22;5495;53.252;10.390;2023-05-10T01:08:06;14.30;92.00
10885;DHT22;5495;53.252;10.390;2023-05-10T01:10:38;14.30;92.20
10885;DHT22;5495;53.252;10.390;2023-05-10T01:13:05;14.20;92.20
10885;DHT22;5495;53.252;10.390;2023-05-10T01:15:34;14.20;92.20
10885;DHT22;5495;53.252;10.390;2023-05-10T01:18:01;14.30;92.30
10885;DHT22;5495;53.252;10.390;2023-05-10T01:20:32;14.30;92.20
10885;DHT22;5495;53.252;10.390;2023-05-10T01:23:16;14.20;92.30
10885;DHT22;5495;53.252;10.390;2023-05-10T01:26:07;14.20;92.40
10885;DHT22;5495;53.252;10.390;2023-05-10T01:28:58;14.20;92.40
10885;DHT22;5495;53.252;10.390;2023-05-10T01:32:01;14.10;92.50
10885;DHT22;5495;53.252;10.390;2023-05-10T01:34:35;14.10;92.60
10885;DHT22;5495;53.252;10.390;2023-05-10T01:37:06;13.90;92.50
10885;DHT22;5495;53.252;10.390;2023-05-10T01:39:40;14.10;92.70
10885;DHT22;5495;53.252;10.390;2023-05-10T01:42:15;14.00;92.70
10885;DHT22;5495;53.252;10.390;2023-05-10T01:44:49;14.10;92.80
10885;DHT22;5495;53.252;10.390;2023-05-10T01:47:23;14.00;92.80
10885;DHT22;5495;53.252;10.390;2023-05-10T01:49:54;14.00;92.90
10885;DHT22;5495;53.252;10.390;2023-05-10T01:52:25;14.00;93.00
10885;DHT22;5495;53.252;10.390;2023-05-10T01:54:55;13.90;93.10
10885;DHT22;5495;53.252;10.390;2023-05-10T01:57:26;13.90;93.10
10885;DHT22;5495;53.252;10.390;2023-05-10T01:59:55;13.90;93.20
